Time;durP1;ratioP1;P1;durP2;ratioP2;P2;SDS_P1;SDS_P2;PMS_P1;PMS_P2;Temp;Humidity;BMP_temperature;BMP_pressure;BME280_temperature;BME280_humidity;BME280_pressure;Samples;Min_cycle;Max_cycle;Signal;HPM_P1;HPM_P2
2023/10/08 00:00:49;;;;;;;8.85;2.47;;;;;;;26.58;51.47;102370.63;5113156;28;20043;-66
2023/10/08 00:03:17;;;;;;;8.95;2.33;;;;;;;27.23;49.46;102388.56;5110467;28;20034;-66
2023/10/08 00:05:43;;;;;;;11.80;2.88;;;;;;;26.19;52.24;102374.47;5130369;28;20046;-66
2023/10/08 00:08:09;;;;;;;11.07;2.30;;;;;;;27.10;50.02;102376.78;5111214;28;20478;-66
2023/10/08 00:10:41;;;;;;;8.43;2.70;;;;;;;27.69;48.52;102384.22;5114624;28;20031;-66
2023/10/08 00:13:09;;;;;;;9.85;2.47;;;;;;;26.88;50.08;102377.97;5115916;28;20394;-66
2023/10/08 00:15:41;;;;;;;16.65;2.97;;;;;;;27.53;48.90;102379.75;5129343;28;20479;-66
2023/10/08 00:18:07;;;;;;;13.15;2.97;;;;;;;27.54;48.40;102377.91;5129924;28;20023;-66
2023/10/08 00:23:30;;;;;;;12.15;3.05;;;;;;;27.10;49.10;102382.16;5061782;28;20127;-66
2023/10/08 00:25:57;;;;;;;15.40;3.35;;;;;;;27.15;49.08;102380.06;5111127;28;20034;-66
2023/10/08 00:28:24;;;;;;;17.50;2.78;;;;;;;26.74;50.30;102369.81;5110630;28;20496;-66
2023/10/08 00:30:55;;;;;;;12.77;3.28;;;;;;;27.05;49.39;102352.00;5090144;28;20035;-66
2023/10/08 00:33:20;;;;;;;11.77;2.90;;;;;;;26.63;50.59;102364.16;5111096;28;20020;-66
2023/10/08 00:35:47;;;;;;;10.63;2.90;;;;;;;27.19;48.88;102359.28;5128311;28;20035;-66
2023/10/08 00:38:20;;;;;;;10.77;3.03;;;;;;;27.53;48.22;102358.28;5100666;28;20101;-66
2023/10/08 00:40:45;;;;;;;11.57;3.20;;;;;;;27.13;48.68;102344.41;5094801;28;20031;-66
2023/10/08 00:43:33;;;;;;;18.23;3.13;;;;;;;27.47;47.93;102347.03;5093767;28;20087;-66
2023/10/08 00:45:59;;;;;;;8.07;2.90;;;;;;;27.41;48.07;102334.81;5110849;28;20026;-66
2023/10/08 00:48:29;;;;;;;9.27;2.90;;;;;;;27.10;48.98;102336.53;5095954;28;20031;-66
2023/10/08 00:53:43;;;;;;;8.80;2.65;;;;;;;27.38;47.84;102329.59;5117202;27;20084;-66
2023/10/08 00:56:18;;;;;;;13.65;2.75;;;;;;;26.94;49.33;102323.09;5114193;27;20019;-66
2023/10/08 00:58:48;;;;;;;11.90;2.33;;;;;;;27.65;47.39;102332.50;5123151;27;20031;-66
2023/10/08 01:01:16;;;;;;;9.30;2.92;;;;;;;27.91;47.29;102344.38;5112660;27;20050;-66
2023/10/08 01:03:44;;;;;;;11.38;3.13;;;;;;;27.99;46.37;102345.75;5124864;27;20031;-66
2023/10/08 01:06:11;;;;;;;16.05;2.50;;;;;;;28.21;46.23;102348.88;5111146;28;20089;-66
2023/10/08 01:08:37;;;;;;;7.00;2.47;;;;;;;28.23;45.87;102355.03;5112502;27;20038;-66
2023/10/08 01:11:32;;;;;;;11.38;2.72;;;;;;;28.24;46.05;102359.44;5099386;27;20027;-66
2023/10/08 01:13:58;;;;;;;9.88;2.70;;;;;;;28.30;45.55;102357.34;5103302;28;20023;-66
2023/10/08 01:16:27;;;;;;;10.25;2.53;;;;;;;28.25;45.96;102365.69;5106728;27;20027;-66
2023/10/08 01:18:54;;;;;;;7.53;2.78;;;;;;;28.51;45.20;102366.78;5131403;27;20034;-66
2023/10/08 01:21:33;;;;;;;7.90;2.40;;;;;;;28.21;45.88;102358.78;5100280;28;20548;-66
2023/10/08 01:24:01;;;;;;;14.52;2.38;;;;;;;28.41;45.50;102365.59;5093203;28;20032;-66
2023/10/08 01:26:29;;;;;;;9.00;2.58;;;;;;;28.39;45.16;102360.31;5114886;27;20035;-66
2023/10/08 01:28:55;;;;;;;7.75;2.88;;;;;;;27.52;47.10;102351.16;5093328;28;20457;-66
2023/10/08 01:31:21;;;;;;;10.35;2.65;;;;;;;27.58;47.12;102355.31;5111885;28;20028;-66
2023/10/08 01:33:47;;;;;;;9.73;2.92;;;;;;;27.78;46.60;102356.81;5110922;27;20038;-66
2023/10/08 01:36:12;;;;;;;7.75;2.90;;;;;;;27.84;47.07;102369.88;5093178;28;20032;-66
2023/10/08 01:38:38;;;;;;;9.68;3.10;;;;;;;27.91;46.67;102363.16;5106846;27;20034;-66
2023/10/08 01:41:18;;;;;;;9.95;2.70;;;;;;;27.71;47.04;102355.44;5112928;27;20075;-67
2023/10/08 01:43:45;;;;;;;10.75;3.15;;;;;;;28.07;45.84;102351.56;5115397;27;20043;-66
2023/10/08 01:46:11;;;;;;;8.90;2.55;;;;;;;28.07;46.55;102362.31;5111444;28;20469;-67
2023/10/08 01:48:37;;;;;;;15.20;3.20;;;;;;;28.16;45.73;102372.47;5114782;27;20181;-65
2023/10/08 01:51:08;;;;;;;15.43;3.65;;;;;;;28.16;45.87;102383.22;5101052;27;20118;-66
2023/10/08 01:53:35;;;;;;;10.32;3.20;;;;;;;28.18;46.00;102375.94;5093403;28;20019;-66
2023/10/08 01:56:01;;;;;;;11.45;3.28;;;;;;;28.25;45.90;102388.06;5092444;28;20039;-66
2023/10/08 01:58:27;;;;;;;12.60;2.65;;;;;;;28.13;45.93;102394.16;5092827;28;20058;-65
2023/10/08 02:00:54;;;;;;;5.60;2.60;;;;;;;27.91;46.03;102403.47;5117831;27;20561;-65
2023/10/08 02:03:19;;;;;;;11.35;2.55;;;;;;;28.29;45.81;102417.44;5098919;28;20071;-65
2023/10/08 02:05:46;;;;;;;10.30;2.60;;;;;;;28.16;46.04;102409.25;5109994;28;20054;-65
2023/10/08 02:08:12;;;;;;;13.93;3.38;;;;;;;27.73;47.06;102408.13;5092198;28;20058;-65
2023/10/08 02:10:42;;;;;;;9.70;2.58;;;;;;;28.08;46.23;102401.63;5093251;28;20038;-66
2023/10/08 02:13:09;;;;;;;9.25;2.78;;;;;;;27.79;46.67;102406.88;5109678;27;20023;-66
2023/10/08 02:15:43;;;;;;;9.30;2.53;;;;;;;28.02;46.21;102402.03;5092109;28;20024;-65
2023/10/08 02:18:08;;;;;;;8.35;2.95;;;;;;;28.12;46.04;102389.75;5112928;27;20031;-65
2023/10/08 02:20:34;;;;;;;10.07;2.92;;;;;;;27.99;46.61;102392.28;5117218;27;20080;-65
2023/10/08 02:22:59;;;;;;;9.65;3.25;;;;;;;28.01;46.11;102389.53;5130442;27;20534;-66
2023/10/08 02:25:25;;;;;;;10.88;2.88;;;;;;;28.09;46.35;102392.63;5123336;27;20031;-65
2023/10/08 02:27:51;;;;;;;8.32;3.25;;;;;;;28.10;46.44;102389.00;5092258;28;20024;-66
2023/10/08 02:30:17;;;;;;;9.48;2.83;;;;;;;28.13;46.33;102383.41;5091864;28;20494;-65
2023/10/08 02:32:43;;;;;;;8.68;3.67;;;;;;;27.95;46.55;102384.50;5115422;27;20019;-66
2023/10/08 02:35:11;;;;;;;8.50;2.72;;;;;;;27.75;46.84;102389.22;5112446;27;20030;-65
2023/10/08 02:37:39;;;;;;;4.88;2.60;;;;;;;27.89;46.55;102383.03;5125506;27;20516;-65
2023/10/08 02:40:16;;;;;;;7.70;2.78;;;;;;;27.46;47.24;102388.22;5101759;27;20031;-66
2023/10/08 02:42:41;;;;;;;8.52;2.97;;;;;;;28.03;46.70;102395.69;5128790;27;20394;-66
2023/10/08 02:45:13;;;;;;;10.85;3.30;;;;;;;28.33;45.64;102400.16;5111557;27;20034;-66
2023/10/08 02:47:41;;;;;;;12.73;3.43;;;;;;;28.42;45.85;102407.66;5112683;27;20113;-65
2023/10/08 02:50:08;;;;;;;13.68;3.05;;;;;;;28.10;46.20;102402.44;5092235;28;20031;-66
2023/10/08 02:52:33;;;;;;;11.57;3.45;;;;;;;28.08;46.20;102396.25;5117125;27;20053;-65
2023/10/08 02:55:00;;;;;;;9.98;2.67;;;;;;;28.10;46.30;102394.38;5112276;27;20050;-65
2023/10/08 02:57:29;;;;;;;7.97;3.17;;;;;;;28.13;46.20;102396.84;5111563;27;20023;-66
2023/10/08 02:59:54;;;;;;;10.98;3.55;;;;;;;28.01;46.37;102394.91;5111526;28;20050;-66
2023/10/08 03:02:21;;;;;;;9.10;2.63;;;;;;;27.97;46.54;102398.69;5100590;27;20390;-66
2023/10/08 03:04:48;;;;;;;6.25;2.60;;;;;;;28.18;45.81;102397.44;5113851;27;20053;-66
2023/10/08 03:07:26;;;;;;;5.82;3.42;;;;;;;28.24;45.95;102405.13;5128874;27;20036;-66
2023/10/08 03:10:03;;;;;;;9.15;2.95;;;;;;;28.26;45.85;102397.84;5130286;27;20035;-65
2023/10/08 03:12:32;;;;;;;7.47;3.30;;;;;;;27.95;46.30;102406.00;5128669;27;20472;-65
2023/10/08 03:17:53;;;;;;;8.65;3.65;;;;;;;27.90;46.39;102393.72;5113856;27;20039;-65
2023/10/08 03:20:29;;;;;;;8.93;2.70;;;;;;;27.86;46.63;102392.16;5091381;28;20049;-66
2023/10/08 03:22:56;;;;;;;10.05;3.33;;;;;;;27.74;46.54;102398.25;5091474;28;20493;-65
2023/10/08 03:25:24;;;;;;;10.85;2.80;;;;;;;27.74;46.68;102395.56;5113993;28;20027;-65
2023/10/08 03:27:49;;;;;;;11.05;3.15;;;;;;;27.84;46.46;102394.06;5091776;28;20023;-66
2023/10/08 03:30:15;;;;;;;10.63;3.47;;;;;;;27.77;46.94;102398.91;5109883;28;20058;-65
2023/10/08 03:32:44;;;;;;;12.13;3.13;;;;;;;27.69;46.99;102411.06;5108469;28;20023;-65
2023/10/08 03:35:10;;;;;;;13.88;3.97;;;;;;;27.85;46.38;102406.53;5122777;28;20169;-66
2023/10/08 03:37:41;;;;;;;13.05;3.05;;;;;;;27.98;46.22;102421.94;5103425;28;20080;-66
2023/10/08 03:40:25;;;;;;;10.00;3.58;;;;;;;27.73;47.18;102431.44;5109134;28;20463;-66
2023/10/08 03:42:55;;;;;;;6.15;2.72;;;;;;;28.17;45.96;102444.09;5091676;28;20024;-66
2023/10/08 03:46:07;;;;;;;14.07;3.05;;;;;;;28.07;46.11;102448.31;5100025;28;20019;-65
2023/10/08 03:48:11;;;;;;;9.93;3.03;;;;;;;28.13;45.92;102442.53;5097434;28;20032;-65
2023/10/08 03:50:43;;;;;;;7.78;3.40;;;;;;;27.94;46.13;102437.34;5107714;28;20066;-65
2023/10/08 03:53:12;;;;;;;6.38;2.75;;;;;;;27.90;46.42;102431.31;5109619;28;20061;-65
2023/10/08 03:55:41;;;;;;;12.80;3.38;;;;;;;27.74;46.79;102436.72;5101830;28;20045;-65
2023/10/08 03:58:19;;;;;;;11.32;2.80;;;;;;;28.12;46.34;102439.94;5094842;28;20058;-65
2023/10/08 04:00:45;;;;;;;11.73;3.47;;;;;;;27.72;47.12;102448.50;5099389;28;20085;-66
2023/10/08 04:03:11;;;;;;;8.48;3.20;;;;;;;27.77;46.85;102457.16;5087253;28;20038;-65
2023/10/08 04:05:59;;;;;;;11.20;3.50;;;;;;;27.69;46.76;102451.38;5101745;28;20476;-65
2023/10/08 04:08:39;;;;;;;10.07;3.30;;;;;;;27.98;46.40;102465.78;5087607;28;20469;-66
2023/10/08 04:11:08;;;;;;;7.93;2.80;;;;;;;27.93;46.07;102471.44;5087977;28;20103;-65
2023/10/08 04:13:38;;;;;;;9.18;3.30;;;;;;;27.56;47.22;102480.72;5103085;28;20362;-66
2023/10/08 04:16:04;;;;;;;12.55;3.42;;;;;;;27.86;46.85;102474.56;5107286;28;20030;-65
2023/10/08 04:18:30;;;;;;;15.93;3.83;;;;;;;27.74;47.18;102476.16;5111796;28;20024;-66
2023/10/08 04:21:04;;;;;;;9.63;3.95;;;;;;;27.52;47.56;102474.66;5111694;28;20023;-65
2023/10/08 04:23:30;;;;;;;8.38;3.08;;;;;;;27.53;47.63;102467.47;5112733;28;20498;-65
2023/10/08 04:25:56;;;;;;;10.27;3.63;;;;;;;27.69;47.21;102475.53;5094019;28;20065;-65
2023/10/08 04:28:26;;;;;;;11.27;3.47;;;;;;;27.80;46.87;102473.09;5101362;28;20126;-65
2023/10/08 04:30:51;;;;;;;9.85;3.88;;;;;;;27.80;46.68;102478.47;5097597;28;20502;-66
2023/10/08 04:33:19;;;;;;;12.38;3.55;;;;;;;27.80;46.68;102483.84;5091538;27;20028;-65
2023/10/08 04:35:48;;;;;;;13.15;3.58;;;;;;;28.06;46.32;102489.56;5090615;28;20032;-66
2023/10/08 04:38:21;;;;;;;8.38;3.53;;;;;;;27.59;47.22;102476.03;5109141;28;20463;-65
2023/10/08 04:40:48;;;;;;;9.60;3.17;;;;;;;27.58;47.55;102479.69;5100651;28;20031;-65
2023/10/08 04:43:30;;;;;;;11.35;3.55;;;;;;;27.54;47.60;102470.06;5091538;28;20036;-65
2023/10/08 04:46:19;;;;;;;12.73;3.50;;;;;;;27.35;47.60;102485.44;5107275;27;20050;-65
2023/10/08 04:48:45;;;;;;;13.43;4.25;;;;;;;27.34;47.74;102471.16;5091032;28;20069;-65
2023/10/08 04:51:12;;;;;;;7.07;3.22;;;;;;;27.84;46.99;102474.66;5091078;28;20039;-66
2023/10/08 04:53:40;;;;;;;8.65;3.65;;;;;;;27.50;47.72;102481.06;5091082;28;20017;-66
2023/10/08 04:56:18;;;;;;;11.35;3.28;;;;;;;27.04;48.65;102473.72;5090691;28;20028;-65
2023/10/08 04:58:47;;;;;;;9.23;3.13;;;;;;;27.46;47.64;102480.38;5101671;28;20407;-65
2023/10/08 05:12:10;;;;;;;8.88;3.17;;;;;;;27.21;48.11;102465.59;5091450;28;20028;-65
2023/10/08 05:14:45;;;;;;;12.40;3.67;;;;;;;27.76;46.58;102474.22;5091579;28;20035;-65
2023/10/08 05:17:21;;;;;;;11.07;3.85;;;;;;;26.84;49.20;102483.69;5090288;28;20467;-65
2023/10/08 05:19:48;;;;;;;12.43;4.18;;;;;;;27.02;49.48;102475.59;5091270;28;20016;-65
2023/10/08 05:22:43;;;;;;;15.73;4.03;;;;;;;27.04;49.18;102474.56;5090065;28;20739;-65
2023/10/08 05:35:48;;;;;;;12.27;3.80;;;;;;;26.17;50.59;102515.69;5106440;28;20522;-65
2023/10/08 05:49:03;;;;;;;8.77;3.20;;;;;;;26.85;47.76;102482.75;5112097;28;20506;-65
2023/10/08 05:51:44;;;;;;;13.50;3.40;;;;;;;25.92;49.58;102481.16;5107104;28;20031;-65
2023/10/08 06:13:05;;;;;;;8.50;2.90;;;;;;;24.77;52.37;102523.00;5109981;27;20407;-65
2023/10/08 06:15:48;;;;;;;11.63;3.38;;;;;;;25.33;51.08;102529.44;5105207;27;20042;-66
2023/10/08 06:18:25;;;;;;;;;;;;;;;24.97;52.08;102538.16;5114163;27;20114;-65
2023/10/08 06:20:54;;;;;;;3.13;1.90;;;;;;;24.12;53.89;102548.84;5092574;28;19959;-65
2023/10/08 06:23:22;;;;;;;10.60;2.28;;;;;;;25.54;50.32;102551.69;5107807;27;20478;-65
2023/10/08 06:25:56;;;;;;;5.80;2.00;;;;;;;25.72;50.01;102544.59;5123361;27;20050;-66
2023/10/08 06:28:25;;;;;;;7.65;2.42;;;;;;;25.64;49.93;102554.81;5110224;28;20165;-65
2023/10/08 06:30:56;;;;;;;7.78;3.08;;;;;;;25.54;50.60;102554.38;5111037;28;20023;-66
2023/10/08 06:33:25;;;;;;;4.53;2.10;;;;;;;24.66;52.59;102565.34;5101914;28;20062;-65
2023/10/08 06:36:33;;;;;;;8.02;2.58;;;;;;;25.44;50.54;102568.25;5116394;27;20490;-65
2023/10/08 06:38:42;;;;;;;10.25;3.10;;;;;;;25.44;50.92;102563.75;5099676;28;20486;-65
2023/10/08 06:41:15;;;;;;;10.35;3.17;;;;;;;25.11;51.69;102566.97;5092080;28;20027;-66
2023/10/08 06:43:49;;;;;;;11.23;3.20;;;;;;;25.38;51.36;102564.03;5109349;28;20020;-65
2023/10/08 06:46:19;;;;;;;18.10;3.72;;;;;;;24.94;52.55;102557.03;5115452;27;20030;-65
2023/10/08 06:48:45;;;;;;;16.02;3.63;;;;;;;24.27;54.02;102558.06;5113348;27;20096;-65
2023/10/08 06:51:12;;;;;;;20.95;4.03;;;;;;;24.28;53.97;102557.13;5109952;27;20338;-65
2023/10/08 06:53:47;;;;;;;14.10;4.28;;;;;;;24.62;52.79;102569.09;5111306;27;20018;-66
2023/10/08 06:56:18;;;;;;;11.10;4.15;;;;;;;24.88;52.03;102586.69;5093216;28;20028;-65
2023/10/08 06:58:49;;;;;;;18.77;4.15;;;;;;;24.22;53.08;102585.81;5127387;27;20459;-66
2023/10/08 07:01:21;;;;;;;17.48;3.83;;;;;;;23.53;55.47;102593.78;5128837;27;20096;-64
2023/10/08 07:03:51;;;;;;;15.55;3.25;;;;;;;24.80;51.86;102595.06;5111992;27;20028;-65
2023/10/08 07:06:31;;;;;;;15.98;3.88;;;;;;;24.69;51.48;102581.28;5111222;27;20072;-66
2023/10/08 07:08:59;;;;;;;10.32;3.28;;;;;;;24.36;52.20;102595.94;5102568;28;20088;-65
2023/10/08 07:11:26;;;;;;;13.90;3.70;;;;;;;24.85;51.11;102598.41;5109510;28;20015;-65
2023/10/08 07:13:52;;;;;;;14.52;4.07;;;;;;;25.19;49.98;102586.22;5091673;28;20286;-65
2023/10/08 07:16:18;;;;;;;6.53;2.85;;;;;;;24.25;51.47;102602.63;5109541;28;20073;-65
2023/10/08 07:18:52;;;;;;;11.75;3.53;;;;;;;24.49;50.62;102601.66;5106535;28;20035;-66
2023/10/08 07:21:18;;;;;;;7.72;2.00;;;;;;;24.72;50.32;102599.88;5110102;28;20448;-65
2023/10/08 07:23:56;;;;;;;16.95;3.17;;;;;;;24.90;49.52;102604.41;5091672;28;20104;-65
2023/10/08 07:26:25;;;;;;;8.70;2.10;;;;;;;25.20;48.60;102614.72;5109266;28;20038;-65
2023/10/08 07:28:52;;;;;;;7.32;2.63;;;;;;;24.18;50.91;102620.72;5113116;28;20023;-65
2023/10/08 07:31:23;;;;;;;13.25;3.17;;;;;;;25.11;49.22;102615.13;5109769;28;20051;-65
2023/10/08 07:33:56;;;;;;;4.43;2.08;;;;;;;25.18;48.51;102624.63;5097718;28;20015;-66
2023/10/08 07:36:30;;;;;;;5.20;1.92;;;;;;;25.14;48.98;102631.06;5111545;28;20027;-65
2023/10/08 07:38:56;;;;;;;6.20;2.30;;;;;;;24.68;49.79;102633.00;5129585;28;20523;-65
2023/10/08 07:41:22;;;;;;;10.30;2.30;;;;;;;24.01;51.58;102630.25;5109085;28;20027;-65
2023/10/08 07:43:55;;;;;;;13.82;2.72;;;;;;;23.04;53.69;102633.75;5112700;28;20084;-65
2023/10/08 07:46:26;;;;;;;12.55;2.83;;;;;;;23.36;53.25;102632.63;5114553;27;20027;-65
2023/10/08 07:48:52;;;;;;;8.35;2.22;;;;;;;23.51;53.05;102641.00;5113735;27;20016;-66
2023/10/08 07:51:21;;;;;;;7.35;2.42;;;;;;;23.55;53.11;102645.31;5097415;27;20030;-65
2023/10/08 07:53:55;;;;;;;8.85;2.47;;;;;;;23.81;51.88;102641.69;5101749;27;20019;-66
2023/10/08 07:56:21;;;;;;;10.82;2.58;;;;;;;24.28;51.07;102634.59;5096494;28;20037;-65
2023/10/08 07:58:47;;;;;;;17.70;3.30;;;;;;;24.14;51.23;102644.03;5115138;27;20444;-65
2023/10/08 08:01:14;;;;;;;10.63;2.58;;;;;;;24.12;51.46;102635.19;5114272;27;20402;-65
2023/10/08 08:03:41;;;;;;;7.03;2.38;;;;;;;23.96;51.61;102639.38;5119926;27;20072;-66
2023/10/08 08:06:07;;;;;;;8.77;2.63;;;;;;;23.44;53.34;102653.72;5120317;27;20080;-66
2023/10/08 08:08:36;;;;;;;7.13;2.63;;;;;;;23.26;53.80;102639.22;5109620;28;20077;-66
2023/10/08 08:11:07;;;;;;;7.03;2.75;;;;;;;23.40;53.12;102648.50;5112191;27;20383;-66
2023/10/08 08:13:35;;;;;;;9.23;2.55;;;;;;;24.19;51.37;102652.72;5095104;27;20031;-66
2023/10/08 08:16:16;;;;;;;11.02;2.47;;;;;;;23.25;53.94;102668.63;5105372;27;20056;-66
2023/10/08 08:18:42;;;;;;;13.23;3.70;;;;;;;23.42;53.16;102660.88;5099524;27;20031;-66
2023/10/08 08:21:14;;;;;;;13.95;2.83;;;;;;;23.37;53.74;102662.84;5107320;27;20411;-65
2023/10/08 08:23:39;;;;;;;10.00;3.10;;;;;;;24.07;52.01;102663.91;5098645;27;20419;-67
2023/10/08 08:28:36;;;;;;;11.00;2.50;;;;;;;24.70;50.29;102668.56;5120164;27;20425;-66
2023/10/08 08:31:04;;;;;;;15.07;3.53;;;;;;;24.06;51.17;102678.16;5131570;27;20026;-66
2023/10/08 08:36:17;;;;;;;12.48;3.38;;;;;;;23.09;53.16;102695.75;5124385;27;20402;-66
2023/10/08 08:38:43;;;;;;;7.55;2.08;;;;;;;22.96;53.54;102699.78;5094757;28;20027;-67
2023/10/08 08:41:12;;;;;;;9.13;2.03;;;;;;;23.50;52.23;102696.16;5094457;28;20102;-66
2023/10/08 08:43:44;;;;;;;6.15;2.33;;;;;;;23.86;51.52;102687.78;5094107;28;20024;-66
2023/10/08 08:46:12;;;;;;;6.27;1.83;;;;;;;24.04;50.72;102693.38;5112623;27;20024;-66
2023/10/08 08:48:40;;;;;;;8.98;2.00;;;;;;;22.55;54.32;102705.50;5094732;28;20265;-66
2023/10/08 08:51:06;;;;;;;13.57;2.00;;;;;;;23.38;52.71;102701.94;5112215;28;20024;-66
2023/10/08 08:53:33;;;;;;;7.55;1.88;;;;;;;23.96;50.79;102704.34;5094745;28;20024;-66
2023/10/08 08:56:03;;;;;;;10.60;1.98;;;;;;;23.29;51.92;102702.28;5107897;28;20027;-66
2023/10/08 08:58:33;;;;;;;6.50;1.73;;;;;;;23.71;51.20;102693.66;5119113;27;20018;-67
2023/10/08 09:01:00;;;;;;;7.90;2.05;;;;;;;24.05;50.80;102676.41;5114122;27;20142;-66
2023/10/08 09:03:31;;;;;;;7.65;2.00;;;;;;;24.12;50.26;102696.63;5132609;27;20027;-66
2023/10/08 09:05:58;;;;;;;5.15;1.48;;;;;;;23.91;50.21;102700.13;5113475;27;20026;-66
2023/10/08 09:08:28;;;;;;;6.95;1.88;;;;;;;23.86;50.31;102692.22;5113427;27;20467;-67
2023/10/08 09:11:00;;;;;;;6.65;1.70;;;;;;;24.26;49.51;102682.72;5113025;27;20030;-66
2023/10/08 09:13:27;;;;;;;4.05;1.42;;;;;;;24.06;49.91;102680.84;5114761;27;20019;-66
2023/10/08 09:15:57;;;;;;;4.07;1.98;;;;;;;24.53;48.90;102683.44;5111565;27;20083;-66
2023/10/08 09:18:27;;;;;;;6.93;1.48;;;;;;;25.02;47.91;102687.75;5115438;27;20070;-66
2023/10/08 09:20:53;;;;;;;3.58;1.60;;;;;;;24.62;47.81;102692.06;5114076;27;20456;-65
2023/10/08 09:23:21;;;;;;;4.95;1.50;;;;;;;25.00;47.54;102686.94;5114171;27;20033;-66
2023/10/08 09:25:49;;;;;;;5.57;1.75;;;;;;;25.17;46.97;102673.72;5131959;27;20100;-66
2023/10/08 09:28:16;;;;;;;7.35;1.90;;;;;;;25.18;47.09;102672.81;5108877;27;20023;-66
2023/10/08 09:30:44;;;;;;;3.85;1.70;;;;;;;25.10;46.76;102677.63;5111968;28;20020;-66
2023/10/08 09:33:16;;;;;;;9.00;1.42;;;;;;;25.72;45.73;102672.28;5092917;28;20524;-66
2023/10/08 09:35:46;;;;;;;2.80;1.65;;;;;;;25.28;46.90;102677.72;5093875;28;20032;-66
2023/10/08 09:38:11;;;;;;;6.03;1.98;;;;;;;25.91;45.63;102675.84;5106108;27;20031;-66
2023/10/08 09:40:38;;;;;;;8.55;2.08;;;;;;;26.36;44.54;102680.94;5112578;27;20099;-66
2023/10/08 09:43:04;;;;;;;5.82;2.13;;;;;;;26.06;45.09;102681.44;5113576;27;20428;-66
2023/10/08 09:45:30;;;;;;;7.45;1.83;;;;;;;26.73;44.05;102697.94;5113271;27;20062;-66
2023/10/08 09:47:56;;;;;;;9.38;2.33;;;;;;;25.50;46.04;102689.28;5132368;27;20474;-66
2023/10/08 09:50:28;;;;;;;10.32;2.15;;;;;;;26.36;44.39;102678.25;5096840;28;20544;-66
2023/10/08 09:53:16;;;;;;;8.52;2.28;;;;;;;26.31;44.80;102666.88;5110295;27;20019;-66
2023/10/08 09:55:46;;;;;;;4.40;1.45;;;;;;;26.41;44.70;102666.38;5124074;27;20034;-66
2023/10/08 09:58:14;;;;;;;6.25;1.95;;;;;;;26.20;44.62;102668.28;5132197;27;20023;-66
2023/10/08 10:00:41;;;;;;;9.13;2.05;;;;;;;25.98;45.26;102670.19;5129964;27;20043;-66
2023/10/08 10:03:09;;;;;;;4.68;1.52;;;;;;;26.07;45.20;102692.06;5121214;27;20119;-66
2023/10/08 10:05:38;;;;;;;4.25;1.60;;;;;;;26.89;42.87;102690.88;5111405;27;20772;-68
2023/10/08 10:08:09;;;;;;;8.10;3.03;;;;;;;26.12;44.61;102673.13;5105974;27;20037;-66
2023/10/08 10:10:38;;;;;;;4.55;2.20;;;;;;;26.23;44.69;102668.13;5128061;27;20038;-66
2023/10/08 10:13:10;;;;;;;6.07;1.65;;;;;;;27.22;43.17;102674.00;5130797;27;20505;-66
2023/10/08 10:15:37;;;;;;;6.65;2.30;;;;;;;27.07;43.47;102680.16;5122523;27;20031;-66
2023/10/08 10:18:21;;;;;;;6.70;2.75;;;;;;;26.71;43.58;102683.75;5101750;27;20490;-66
2023/10/08 10:20:53;;;;;;;8.00;2.92;;;;;;;25.84;45.38;102685.09;5096104;27;20040;-66
2023/10/08 10:23:42;;;;;;;7.35;2.72;;;;;;;26.09;45.43;102686.69;5094151;27;20516;-66
2023/10/08 10:26:30;;;;;;;5.47;1.83;;;;;;;26.01;45.41;102697.69;5121513;27;20031;-66
2023/10/08 10:29:10;;;;;;;5.72;2.35;;;;;;;25.76;45.55;102707.78;5095701;27;20122;-66
2023/10/08 10:31:40;;;;;;;6.50;1.90;;;;;;;25.37;46.83;102706.81;5117134;27;20072;-66
2023/10/08 10:34:08;;;;;;;9.55;2.05;;;;;;;26.62;44.23;102705.63;5110247;28;20028;-66
2023/10/08 10:36:34;;;;;;;12.23;2.53;;;;;;;26.24;44.55;102704.72;5109280;27;20040;-66
2023/10/08 10:39:00;;;;;;;6.70;2.67;;;;;;;26.25;44.74;102702.88;5114875;27;20034;-66
2023/10/08 10:41:27;;;;;;;13.07;2.88;;;;;;;25.84;46.09;102702.97;5112531;27;20035;-66
2023/10/08 10:43:53;;;;;;;5.30;2.55;;;;;;;26.12;44.88;102710.63;5111771;27;20019;-66
2023/10/08 10:46:30;;;;;;;3.45;1.95;;;;;;;26.39;44.92;102699.53;5092385;28;20042;-66
2023/10/08 10:51:41;;;;;;;13.05;2.60;;;;;;;25.72;46.09;102707.06;5129510;27;20046;-66
2023/10/08 10:54:20;;;;;;;9.30;2.25;;;;;;;26.97;43.93;102686.91;5111182;27;20023;-66
2023/10/08 10:56:47;;;;;;;10.75;2.10;;;;;;;26.65;44.52;102686.69;5091032;28;20023;-66
2023/10/08 10:59:22;;;;;;;9.93;2.22;;;;;;;26.52;44.63;102692.66;5098945;28;20027;-66
2023/10/08 11:01:52;;;;;;;7.78;1.60;;;;;;;26.56;44.08;102688.03;5108025;27;20489;-66
2023/10/08 11:04:21;;;;;;;8.07;2.38;;;;;;;27.11;43.54;102684.41;5104916;27;20031;-66
2023/10/08 11:06:50;;;;;;;8.55;2.28;;;;;;;27.35;42.88;102690.31;5104536;28;20106;-66
2023/10/08 11:09:22;;;;;;;3.83;1.50;;;;;;;26.73;43.33;102679.16;5095435;27;20547;-66
2023/10/08 11:11:54;;;;;;;4.78;2.13;;;;;;;26.52;44.23;102673.88;5111088;27;20027;-66
2023/10/08 11:14:20;;;;;;;10.25;2.40;;;;;;;27.03;43.53;102681.25;5110211;27;20016;-66
2023/10/08 11:16:47;;;;;;;9.18;2.45;;;;;;;27.04;43.49;102677.63;5111294;27;20107;-65
2023/10/08 11:19:15;;;;;;;4.40;2.13;;;;;;;27.69;42.32;102668.91;5098050;28;20026;-65
2023/10/08 11:21:53;;;;;;;6.93;2.35;;;;;;;28.22;41.36;102666.91;5113133;27;20027;-66
2023/10/08 11:24:29;;;;;;;8.50;2.67;;;;;;;28.53;41.04;102663.34;5102225;27;20031;-66
2023/10/08 11:27:15;;;;;;;6.45;2.30;;;;;;;27.82;42.29;102663.72;5105992;28;20035;-66
2023/10/08 11:29:41;;;;;;;10.35;2.78;;;;;;;28.29;41.34;102670.13;5114454;28;21474;-66
2023/10/08 11:32:12;;;;;;;6.75;2.20;;;;;;;27.96;41.10;102671.91;5120360;28;20027;-66
2023/10/08 11:34:39;;;;;;;11.20;3.00;;;;;;;28.16;40.95;102662.75;5129283;28;20031;-66
2023/10/08 11:37:19;;;;;;;9.68;2.92;;;;;;;27.65;42.09;102659.28;5129830;28;20051;-66
2023/10/08 11:39:46;;;;;;;11.10;3.13;;;;;;;26.99;43.74;102667.13;5125704;28;20153;-66
2023/10/08 11:42:58;;;;;;;9.20;3.20;;;;;;;27.85;41.97;102667.13;5107908;28;20030;-66
2023/10/08 11:44:59;;;;;;;12.30;3.05;;;;;;;28.08;41.87;102656.94;5097515;28;20063;-66
2023/10/08 11:47:30;;;;;;;5.35;2.60;;;;;;;27.82;42.52;102670.00;5091334;28;20030;-66
2023/10/08 11:50:16;;;;;;;11.82;3.42;;;;;;;27.52;42.74;102665.31;5097129;28;20505;-66
2023/10/08 11:52:42;;;;;;;7.78;2.90;;;;;;;28.08;42.10;102671.25;5090156;28;20035;-66
2023/10/08 11:55:20;;;;;;;7.82;3.22;;;;;;;28.00;41.79;102664.56;5115121;28;20019;-66
2023/10/08 11:57:50;;;;;;;10.13;2.88;;;;;;;28.49;41.32;102652.88;5109450;28;20027;-66
2023/10/08 12:00:19;;;;;;;5.82;2.55;;;;;;;28.44;40.76;102655.81;5091004;28;20357;-66
2023/10/08 12:02:48;;;;;;;5.03;2.63;;;;;;;28.32;41.43;102656.53;5106585;28;20091;-66
2023/10/08 12:05:20;;;;;;;9.45;3.13;;;;;;;28.76;40.51;102656.66;5112671;28;20084;-66
2023/10/08 12:07:46;;;;;;;8.88;3.42;;;;;;;28.51;41.06;102650.94;5103646;28;20080;-66
2023/10/08 12:10:12;;;;;;;7.50;2.45;;;;;;;28.34;41.49;102639.31;5106429;28;20033;-66
2023/10/08 12:12:38;;;;;;;12.65;3.58;;;;;;;28.90;40.51;102642.38;5128090;28;20489;-66
2023/10/08 12:15:04;;;;;;;9.43;2.78;;;;;;;28.16;41.46;102641.25;5128682;28;20051;-66
2023/10/08 12:17:39;;;;;;;6.40;2.38;;;;;;;27.64;42.64;102633.38;5124385;28;20055;-65
2023/10/08 12:20:22;;;;;;;5.20;2.67;;;;;;;28.21;41.75;102623.03;5089670;28;20038;-66
2023/10/08 12:22:51;;;;;;;6.10;2.50;;;;;;;28.25;41.83;102611.16;5090454;28;20020;-65
2023/10/08 12:25:17;;;;;;;8.02;2.58;;;;;;;28.90;41.25;102614.63;5101318;28;20020;-66
2023/10/08 12:27:43;;;;;;;8.13;2.92;;;;;;;29.34;39.79;102608.34;5092742;28;20444;-66
2023/10/08 12:30:10;;;;;;;7.70;3.30;;;;;;;29.48;39.62;102603.94;5117489;28;20038;-66
2023/10/08 12:32:42;;;;;;;10.20;4.00;;;;;;;28.52;40.94;102599.78;5130411;27;20023;-65
2023/10/08 12:35:14;;;;;;;8.93;3.22;;;;;;;29.22;39.96;102588.44;5132981;27;20031;-65
2023/10/08 12:37:40;;;;;;;8.85;3.70;;;;;;;28.56;41.24;102585.19;5112604;27;20027;-66
2023/10/08 12:40:22;;;;;;;9.10;3.45;;;;;;;29.38;40.69;102587.50;5133408;27;20118;-66
2023/10/08 12:42:50;;;;;;;8.70;4.18;;;;;;;28.52;41.59;102588.13;5114267;27;20118;-66